createdAt,value
2018-07-19T00:00:13.704Z,101083.69
2018-07-19T00:02:40.954Z,101079.05
2018-07-19T00:05:08.172Z,101078.50
2018-07-19T00:07:35.374Z,101085.02
2018-07-19T00:10:02.591Z,101076.38
2018-07-19T00:12:29.767Z,101080.84
2018-07-19T00:14:57.027Z,101073.12
2018-07-19T00:17:24.328Z,101079.16
2018-07-19T00:19:51.534Z,101078.20
2018-07-19T00:22:18.666Z,101083.47
2018-07-19T00:24:45.878Z,101088.19
2018-07-19T00:27:13.050Z,101081.82
2018-07-19T00:29:40.180Z,101084.82
2018-07-19T00:32:07.798Z,101091.28
2018-07-19T00:34:35.039Z,101091.35
2018-07-19T00:37:02.238Z,101088.75
2018-07-19T00:39:29.415Z,101084.35
2018-07-19T00:41:56.551Z,101089.77
2018-07-19T00:44:23.859Z,101085.30
2018-07-19T00:46:51.048Z,101091.03
2018-07-19T00:49:18.229Z,101089.30
2018-07-19T00:51:45.356Z,101088.22
2018-07-19T00:54:12.541Z,101084.30
2018-07-19T00:56:39.776Z,101085.09
2018-07-19T00:59:06.972Z,101082.56
2018-07-19T01:01:34.176Z,101084.30
2018-07-19T01:04:01.380Z,101075.98
2018-07-19T01:06:28.623Z,101079.91
2018-07-19T01:08:55.992Z,101086.78
2018-07-19T01:11:23.216Z,101080.52
2018-07-19T01:13:50.366Z,101075.43
2018-07-19T01:16:17.750Z,101077.70
2018-07-19T01:18:44.893Z,101074.76
2018-07-19T01:21:12.180Z,101071.08
2018-07-19T01:23:39.713Z,101072.20
2018-07-19T01:26:06.841Z,101069.36
2018-07-19T01:28:34.053Z,101071.55
2018-07-19T01:31:01.297Z,101071.88
2018-07-19T01:33:28.531Z,101070.46
2018-07-19T01:35:55.736Z,101074.81
2018-07-19T01:38:23.284Z,101072.14
2018-07-19T01:40:50.585Z,101078.59
2018-07-19T01:43:17.784Z,101076.31
2018-07-19T01:45:45.012Z,101082.80
2018-07-19T01:48:12.136Z,101083.20
2018-07-19T01:50:39.353Z,101085.95
2018-07-19T01:53:06.884Z,101085.69
2018-07-19T01:55:34.101Z,101076.12
2018-07-19T01:58:01.297Z,101082.25
2018-07-19T02:00:28.567Z,101078.33
2018-07-19T02:02:55.793Z,101075.05
2018-07-19T02:05:22.966Z,101077.39
2018-07-19T02:07:50.241Z,101080.36
2018-07-19T02:10:17.376Z,101074.12
2018-07-19T02:12:44.548Z,101078.17
2018-07-19T02:15:11.792Z,101079.16
2018-07-19T02:17:38.959Z,101080.91
2018-07-19T02:20:06.168Z,101074.16
2018-07-19T02:22:33.771Z,101075.67
2018-07-19T02:25:00.939Z,101077.23
2018-07-19T02:27:28.213Z,101074.58
2018-07-19T02:29:55.422Z,101077.27
2018-07-19T02:32:22.640Z,101074.73
2018-07-19T02:34:49.789Z,101073.01
2018-07-19T02:37:17.076Z,101083.89
2018-07-19T02:39:44.293Z,101082.49
2018-07-19T02:42:11.435Z,101084.89
2018-07-19T02:44:38.695Z,101088.19
2018-07-19T02:47:05.826Z,101083.13
2018-07-19T02:49:33.509Z,101086.76
2018-07-19T02:52:01.031Z,101085.50
2018-07-19T02:54:28.188Z,101090.95
2018-07-19T02:56:55.417Z,101088.63
2018-07-19T02:59:22.603Z,101082.37
2018-07-19T03:01:49.824Z,101085.70
2018-07-19T03:04:17.048Z,101086.85
2018-07-19T03:06:44.212Z,101088.02
2018-07-19T03:09:11.424Z,101089.64
2018-07-19T03:11:38.568Z,101083.80
2018-07-19T03:14:05.822Z,101082.00
2018-07-19T03:16:33.051Z,101081.59
2018-07-19T03:19:00.241Z,101082.88
2018-07-19T03:21:27.591Z,101088.14
2018-07-19T03:23:54.759Z,101086.23
2018-07-19T03:26:21.932Z,101089.66
2018-07-19T03:28:49.152Z,101082.20
2018-07-19T03:31:16.285Z,101085.70
2018-07-19T03:33:43.456Z,101082.92
2018-07-19T03:36:10.636Z,101078.99
2018-07-19T03:38:37.805Z,101079.20
2018-07-19T03:41:05.160Z,101078.69
2018-07-19T03:43:32.663Z,101077.95
2018-07-19T03:45:59.840Z,101080.83
2018-07-19T03:48:26.976Z,101077.48
2018-07-19T03:50:54.211Z,101079.46
2018-07-19T03:53:21.412Z,101087.07
2018-07-19T03:55:48.564Z,101088.00
2018-07-19T03:58:15.820Z,101083.89
2018-07-19T04:00:42.952Z,101079.62
2018-07-19T04:03:10.146Z,101081.83
2018-07-19T04:05:37.425Z,101085.47
2018-07-19T04:08:04.691Z,101082.00
2018-07-19T04:10:31.893Z,101077.42
2018-07-19T04:12:59.134Z,101085.59
2018-07-19T04:15:26.303Z,101088.65
2018-07-19T04:17:54.750Z,101085.53
2018-07-19T04:20:23.115Z,101089.05
2018-07-19T04:22:50.524Z,101087.31
2018-07-19T04:25:17.782Z,101091.13
2018-07-19T04:27:44.955Z,101097.66
2018-07-19T04:30:12.069Z,101091.92
2018-07-19T04:32:39.279Z,101099.07
2018-07-19T04:35:06.644Z,101096.08
2018-07-19T04:37:33.789Z,101095.32
2018-07-19T04:40:00.976Z,101095.77
2018-07-19T04:42:28.128Z,101103.92
2018-07-19T04:44:55.368Z,101100.39
2018-07-19T04:47:23.136Z,101107.86
2018-07-19T04:49:50.267Z,101101.88
2018-07-19T04:52:17.460Z,101106.59
2018-07-19T04:54:44.691Z,101106.95
2018-07-19T04:57:11.837Z,101111.74
2018-07-19T04:59:38.949Z,101122.86
2018-07-19T05:02:06.170Z,101119.66
2018-07-19T05:04:34.010Z,101117.43
2018-07-19T05:07:01.158Z,101121.52
2018-07-19T05:09:28.337Z,101122.02
2018-07-19T05:11:55.527Z,101125.01
2018-07-19T05:14:22.737Z,101124.79
2018-07-19T05:16:49.874Z,101122.94
2018-07-19T05:19:17.064Z,101136.13
2018-07-19T05:21:44.228Z,101125.94
2018-07-19T05:24:11.341Z,101135.88
2018-07-19T05:26:38.480Z,101121.31
2018-07-19T05:29:05.675Z,101119.02
2018-07-19T05:31:32.813Z,101119.91
2018-07-19T05:33:59.996Z,101122.55
2018-07-19T05:36:27.196Z,101123.73
2018-07-19T05:38:54.398Z,101131.87
2018-07-19T05:41:21.576Z,101135.02
2018-07-19T05:43:49.539Z,101129.36
2018-07-19T05:46:16.698Z,101133.14
2018-07-19T05:48:43.828Z,101118.53
2018-07-19T05:51:11.016Z,101112.63
2018-07-19T05:53:38.150Z,101120.59
2018-07-19T05:56:05.303Z,101119.39
2018-07-19T05:58:32.464Z,101128.59
2018-07-19T06:00:59.640Z,101125.45
2018-07-19T06:03:26.865Z,101127.38
2018-07-19T06:05:54.019Z,101138.17
2018-07-19T06:08:21.288Z,101121.45
2018-07-19T06:10:48.439Z,101123.19
2018-07-19T06:13:15.592Z,101119.02
2018-07-19T06:15:42.779Z,101125.70
2018-07-19T06:18:09.918Z,101122.32
2018-07-19T06:20:37.072Z,101127.03
2018-07-19T06:23:04.405Z,101127.66
2018-07-19T06:25:31.641Z,101127.91
2018-07-19T06:27:58.844Z,101130.91
2018-07-19T06:30:26.038Z,101122.77
2018-07-19T06:32:53.176Z,101118.73
2018-07-19T06:35:20.403Z,101121.73
2018-07-19T06:37:47.557Z,101119.17
2018-07-19T06:40:15.351Z,101118.83
2018-07-19T06:42:42.523Z,101118.09
2018-07-19T06:45:10.576Z,101119.95
2018-07-19T06:47:37.717Z,101128.16
2018-07-19T06:50:04.916Z,101129.63
2018-07-19T06:52:32.117Z,101126.88
2018-07-19T06:54:59.307Z,101119.63
2018-07-19T06:57:26.569Z,101120.23
2018-07-19T06:59:53.705Z,101132.78
2018-07-19T07:02:20.873Z,101130.88
2018-07-19T07:04:48.167Z,101133.45
2018-07-19T07:07:15.319Z,101132.39
2018-07-19T07:09:42.463Z,101134.50
2018-07-19T07:12:09.739Z,101131.08
2018-07-19T07:14:36.893Z,101131.06
2018-07-19T07:17:04.216Z,101134.41
2018-07-19T07:19:31.417Z,101130.56
2018-07-19T07:21:58.575Z,101129.03
2018-07-19T07:24:26.173Z,101141.70
2018-07-19T07:26:53.417Z,101149.94
2018-07-19T07:29:20.513Z,101144.64
2018-07-19T07:31:47.684Z,101150.67
2018-07-19T07:34:14.977Z,101140.42
2018-07-19T07:36:42.114Z,101141.81
2018-07-19T07:39:10.101Z,101138.87
2018-07-19T07:41:37.300Z,101141.05
2018-07-19T07:44:04.533Z,101139.45
2018-07-19T07:46:31.693Z,101145.73
2018-07-19T07:48:58.907Z,101147.70
2018-07-19T07:51:26.073Z,101143.25
2018-07-19T07:53:53.284Z,101147.56
2018-07-19T07:56:20.509Z,101150.39
2018-07-19T07:58:47.636Z,101147.41
2018-07-19T08:01:14.777Z,101148.19
2018-07-19T08:03:42.008Z,101152.73
2018-07-19T08:06:09.199Z,101161.09
2018-07-19T08:08:36.344Z,101164.57
2018-07-19T08:11:03.598Z,101153.16
2018-07-19T08:13:30.836Z,101152.17
2018-07-19T08:15:58.026Z,101160.19
2018-07-19T08:18:25.306Z,101153.59
2018-07-19T08:20:52.508Z,101158.96
2018-07-19T08:23:19.659Z,101155.56
2018-07-19T08:25:46.849Z,101159.27
2018-07-19T08:28:14.020Z,101155.80
2018-07-19T08:30:41.174Z,101156.99
2018-07-19T08:33:08.412Z,101158.13
2018-07-19T08:35:35.559Z,101163.50
2018-07-19T08:38:02.711Z,101151.89
2018-07-19T08:40:29.939Z,101164.92
2018-07-19T08:42:57.136Z,101159.23
2018-07-19T08:45:24.319Z,101166.39
2018-07-19T08:47:51.506Z,101166.41
2018-07-19T08:50:18.664Z,101171.95
2018-07-19T08:52:45.865Z,101175.75
2018-07-19T08:55:13.132Z,101169.05
2018-07-19T08:57:40.247Z,101169.85
2018-07-19T09:00:08.416Z,101174.16
2018-07-19T09:02:35.640Z,101178.29
2018-07-19T09:05:02.833Z,101169.97
2018-07-19T09:07:30.890Z,101173.84
2018-07-19T09:09:58.109Z,101176.69
2018-07-19T09:12:25.295Z,101179.72
2018-07-19T09:14:52.450Z,101181.75
2018-07-19T09:17:19.676Z,101181.06
2018-07-19T09:19:46.842Z,101182.95
2018-07-19T09:22:13.976Z,101188.84
2018-07-19T09:24:41.184Z,101179.75
2018-07-19T09:27:08.323Z,101181.43
2018-07-19T09:29:35.461Z,101185.89
2018-07-19T09:32:02.645Z,101184.41
2018-07-19T09:34:29.807Z,101185.89
2018-07-19T09:36:57.007Z,101186.02
2018-07-19T09:39:24.222Z,101182.05
2018-07-19T09:41:51.403Z,101181.65
2018-07-19T09:44:18.549Z,101181.59
2018-07-19T09:46:45.760Z,101187.55
2018-07-19T09:49:12.916Z,101182.31
2018-07-19T09:51:40.058Z,101192.56
2018-07-19T09:54:07.241Z,101183.32
2018-07-19T09:56:34.390Z,101184.67
2018-07-19T09:59:01.564Z,101194.66
2018-07-19T10:01:28.812Z,101190.27
2018-07-19T10:03:56.022Z,101188.97
2018-07-19T10:06:23.179Z,101190.75
2018-07-19T10:08:50.510Z,101190.75
2018-07-19T10:11:17.672Z,101191.69
2018-07-19T10:13:45.276Z,101196.66
2018-07-19T10:16:12.396Z,101198.38
2018-07-19T10:18:39.614Z,101205.56
2018-07-19T10:21:06.765Z,101201.02
2018-07-19T10:23:34.227Z,101200.02
2018-07-19T10:26:01.401Z,101204.96
2018-07-19T10:28:28.690Z,101200.88
2018-07-19T10:30:55.972Z,101198.02
2018-07-19T10:33:23.093Z,101200.75
2018-07-19T10:35:50.224Z,101200.02
2018-07-19T10:38:17.472Z,101201.46
2018-07-19T10:40:44.674Z,101204.02
2018-07-19T10:43:11.798Z,101200.95
2018-07-19T10:45:38.990Z,101204.85
2018-07-19T10:48:06.158Z,101200.98
2018-07-19T10:50:33.304Z,101198.88
2018-07-19T10:53:00.506Z,101199.88
2018-07-19T10:55:27.713Z,101195.79
2018-07-19T10:57:54.868Z,101201.78
2018-07-19T11:00:22.073Z,101199.37
2018-07-19T11:02:49.233Z,101195.06
2018-07-19T11:05:16.379Z,101205.09
2018-07-19T11:07:43.544Z,101205.56
2018-07-19T11:10:10.751Z,101205.91
2018-07-19T11:12:37.874Z,101201.47
2018-07-19T11:15:05.129Z,101203.16
2018-07-19T11:17:32.674Z,101194.42
2018-07-19T11:19:59.836Z,101203.96
2018-07-19T11:22:27.028Z,101202.17
2018-07-19T11:24:54.188Z,101199.99
2018-07-19T11:27:21.332Z,101199.20
2018-07-19T11:29:48.492Z,101193.19
2018-07-19T11:32:15.632Z,101198.25
2018-07-19T11:34:42.745Z,101203.08
2018-07-19T11:37:09.918Z,101197.38
2018-07-19T11:39:37.049Z,101200.36
2018-07-19T11:42:04.186Z,101195.23
2018-07-19T11:44:31.412Z,101192.41
2018-07-19T11:46:58.595Z,101199.03
2018-07-19T11:49:25.720Z,101201.61
2018-07-19T11:51:52.884Z,101195.34
2018-07-19T11:54:20.029Z,101200.25
2018-07-19T11:56:47.163Z,101195.83
2018-07-19T11:59:14.317Z,101197.42
2018-07-19T12:01:41.454Z,101194.01
2018-07-19T12:04:08.656Z,101197.69
2018-07-19T12:06:35.892Z,101196.34
2018-07-19T12:09:05.064Z,101189.84
2018-07-19T12:11:32.285Z,101188.02
2018-07-19T12:13:59.483Z,101187.11
2018-07-19T12:16:26.649Z,101189.31
2018-07-19T12:18:53.778Z,101191.17
2018-07-19T12:21:20.965Z,101185.84
2018-07-19T12:23:48.096Z,101185.53
2018-07-19T12:26:15.216Z,101182.99
2018-07-19T12:28:42.472Z,101194.09
2018-07-19T12:31:09.610Z,101188.20
2018-07-19T12:33:36.775Z,101188.52
2018-07-19T12:36:04.043Z,101193.27
2018-07-19T12:38:31.184Z,101184.25
2018-07-19T12:40:58.392Z,101194.61
2018-07-19T12:43:25.539Z,101196.62
2018-07-19T12:45:52.732Z,101194.84
2018-07-19T12:48:19.848Z,101188.38
2018-07-19T12:50:47.119Z,101193.85
2018-07-19T12:53:14.280Z,101192.94
2018-07-19T12:55:41.402Z,101189.66
2018-07-19T12:58:08.632Z,101188.11
2018-07-19T13:00:35.793Z,101185.98
2018-07-19T13:03:02.970Z,101196.30
2018-07-19T13:05:30.187Z,101191.30
2018-07-19T13:07:57.352Z,101194.67
2018-07-19T13:10:24.468Z,101191.86
2018-07-19T13:12:51.703Z,101192.27
2018-07-19T13:15:18.865Z,101190.23
2018-07-19T13:17:45.991Z,101190.02
2018-07-19T13:20:13.204Z,101194.18
2018-07-19T13:22:40.344Z,101183.83
2018-07-19T13:25:07.505Z,101185.42
2018-07-19T13:27:34.701Z,101187.27
2018-07-19T13:30:01.866Z,101192.38
2018-07-19T13:32:29.005Z,101189.83
2018-07-19T13:34:56.260Z,101190.11
2018-07-19T13:37:23.407Z,101193.39
2018-07-19T13:39:50.540Z,101187.24
2018-07-19T13:42:17.820Z,101185.27
2018-07-19T13:44:44.956Z,101185.05
2018-07-19T13:47:12.076Z,101185.66
2018-07-19T13:49:39.815Z,101185.54
2018-07-19T13:52:06.954Z,101176.61
2018-07-19T13:54:41.653Z,101177.10
2018-07-19T13:57:08.762Z,101170.23
2018-07-19T13:59:35.913Z,101169.12
2018-07-19T14:02:03.257Z,101163.86
2018-07-19T14:04:30.371Z,101163.86
2018-07-19T14:06:57.791Z,101160.51
2018-07-19T14:09:24.973Z,101158.94
2018-07-19T14:11:52.131Z,101158.78
2018-07-19T14:14:19.424Z,101156.58
2018-07-19T14:16:46.659Z,101155.19
2018-07-19T14:19:13.808Z,101154.66
2018-07-19T14:21:40.938Z,101148.20
2018-07-19T14:24:08.119Z,101161.67
2018-07-19T14:26:35.247Z,101158.81
2018-07-19T14:29:02.464Z,101153.30
2018-07-19T14:31:29.766Z,101155.88
2018-07-19T14:33:56.928Z,101154.26
2018-07-19T14:36:24.056Z,101153.23
2018-07-19T14:38:51.283Z,101155.38
2018-07-19T14:41:18.425Z,101147.23
2018-07-19T14:43:45.532Z,101151.78
2018-07-19T14:46:12.700Z,101137.54
2018-07-19T14:48:39.832Z,101138.87
2018-07-19T14:51:07.652Z,101135.81
2018-07-19T14:53:34.842Z,101133.99
2018-07-19T14:56:01.992Z,101128.02
2018-07-19T14:58:29.188Z,101128.37
2018-07-19T15:00:56.463Z,101127.86
2018-07-19T15:03:23.580Z,101121.52
2018-07-19T15:05:50.718Z,101122.55
2018-07-19T15:08:17.905Z,101125.95
2018-07-19T15:10:45.012Z,101122.80
2018-07-19T15:13:12.133Z,101125.63
2018-07-19T15:15:39.371Z,101117.02
2018-07-19T15:18:06.496Z,101113.02
2018-07-19T15:20:33.659Z,101112.27
2018-07-19T15:23:00.919Z,101108.12
2018-07-19T15:25:28.327Z,101107.11
2018-07-19T15:27:55.439Z,101105.61
2018-07-19T15:30:22.657Z,101107.83
2018-07-19T15:32:50.065Z,101100.55
2018-07-19T15:35:17.184Z,101103.00
2018-07-19T15:37:44.398Z,101107.00
2018-07-19T15:40:11.509Z,101098.83
2018-07-19T15:42:38.632Z,101103.00
2018-07-19T15:45:06.326Z,101102.33
2018-07-19T15:47:33.550Z,101096.97
2018-07-19T15:50:00.714Z,101101.35
2018-07-19T15:52:27.920Z,101098.99
2018-07-19T15:54:55.073Z,101097.31
2018-07-19T15:57:22.216Z,101095.59
2018-07-19T15:59:49.404Z,101101.98
2018-07-19T16:02:16.533Z,101102.75
2018-07-19T16:04:43.689Z,101092.66
2018-07-19T16:07:10.939Z,101096.90
2018-07-19T16:09:38.104Z,101099.27
2018-07-19T16:12:05.253Z,101088.83
2018-07-19T16:14:32.445Z,101092.30
2018-07-19T16:16:59.708Z,101089.69
2018-07-19T16:19:26.863Z,101084.94
2018-07-19T16:21:54.025Z,101083.73
2018-07-19T16:24:21.160Z,101076.71
2018-07-19T16:26:48.324Z,101078.98
2018-07-19T16:29:15.487Z,101075.11
2018-07-19T16:31:42.622Z,101075.86
2018-07-19T16:34:09.773Z,101075.99
2018-07-19T16:36:37.064Z,101076.42
2018-07-19T16:39:06.687Z,101071.89
2018-07-19T16:41:33.873Z,101069.06
2018-07-19T16:44:01.066Z,101069.55
2018-07-19T16:46:28.281Z,101072.15
2018-07-19T16:48:55.355Z,101074.63
2018-07-19T16:51:22.511Z,101067.09
2018-07-19T16:53:49.641Z,101065.62
2018-07-19T16:56:16.756Z,101062.05
2018-07-19T16:58:43.928Z,101058.18
2018-07-19T17:01:11.061Z,101056.11
2018-07-19T17:03:38.163Z,101052.19
2018-07-19T17:06:05.477Z,101056.52
2018-07-19T17:08:32.653Z,101054.13
2018-07-19T17:10:59.800Z,101057.49
2018-07-19T17:13:26.957Z,101054.66
2018-07-19T17:15:54.112Z,101052.48
2018-07-19T17:18:21.315Z,101056.78
2018-07-19T17:20:48.582Z,101056.31
2018-07-19T17:23:15.700Z,101064.27
2018-07-19T17:25:42.820Z,101062.23
2018-07-19T17:28:10.012Z,101062.62
2018-07-19T17:30:37.127Z,101056.99
2018-07-19T17:33:04.302Z,101060.09
2018-07-19T17:35:31.488Z,101065.67
2018-07-19T17:37:58.706Z,101058.86
2018-07-19T17:40:26.161Z,101069.50
2018-07-19T17:42:53.339Z,101065.71
2018-07-19T17:45:20.552Z,101066.58
2018-07-19T17:47:47.680Z,101065.73
2018-07-19T17:50:14.852Z,101068.41
2018-07-19T17:52:41.991Z,101071.09
2018-07-19T17:55:09.137Z,101077.22
2018-07-19T17:57:36.304Z,101076.05
2018-07-19T18:00:03.709Z,101080.31
2018-07-19T18:02:30.901Z,101082.62
2018-07-19T18:04:58.235Z,101083.94
2018-07-19T18:07:25.351Z,101082.43
2018-07-19T18:09:52.475Z,101086.09
2018-07-19T18:12:19.643Z,101087.01
2018-07-19T18:14:46.822Z,101090.70
2018-07-19T18:17:13.989Z,101097.31
2018-07-19T18:19:41.196Z,101100.16
2018-07-19T18:22:08.318Z,101102.27
2018-07-19T18:24:35.461Z,101099.01
2018-07-19T18:27:02.656Z,101096.09
2018-07-19T18:29:29.841Z,101100.03
2018-07-19T18:31:56.951Z,101099.86
2018-07-19T18:34:24.204Z,101112.95
2018-07-19T18:36:51.344Z,101116.77
2018-07-19T18:39:18.505Z,101111.89
2018-07-19T18:41:45.669Z,101116.53
2018-07-19T18:44:12.765Z,101114.11
2018-07-19T18:46:39.871Z,101111.20
2018-07-19T18:49:07.040Z,101113.20
2018-07-19T18:51:34.193Z,101110.50
2018-07-19T18:54:01.335Z,101114.34
2018-07-19T18:56:28.563Z,101115.47
2018-07-19T18:58:55.745Z,101125.95
2018-07-19T19:01:22.867Z,101119.30
2018-07-19T19:03:50.692Z,101128.81
2018-07-19T19:06:19.283Z,101127.00
2018-07-19T19:08:44.972Z,101129.55
2018-07-19T19:11:12.153Z,101129.53
2018-07-19T19:13:39.312Z,101129.23
2018-07-19T19:16:06.471Z,101131.08
2018-07-19T19:18:33.664Z,101130.59
2018-07-19T19:21:00.942Z,101130.77
2018-07-19T19:23:28.113Z,101136.32
2018-07-19T19:25:55.307Z,101140.26
2018-07-19T19:28:22.531Z,101141.17
2018-07-19T19:30:49.644Z,101148.44
2018-07-19T19:33:16.864Z,101151.65
2018-07-19T19:35:43.988Z,101151.23
2018-07-19T19:38:11.115Z,101155.83
2018-07-19T19:40:38.323Z,101157.36
2018-07-19T19:43:05.536Z,101162.81
2018-07-19T19:45:32.696Z,101160.91
2018-07-19T19:48:00.220Z,101167.92
2018-07-19T19:50:27.346Z,101161.08
2018-07-19T19:52:54.453Z,101158.10
2018-07-19T19:55:21.645Z,101166.30
2018-07-19T19:57:48.759Z,101159.47
2018-07-19T20:00:15.933Z,101159.25
2018-07-19T20:02:43.172Z,101160.59
2018-07-19T20:05:10.321Z,101159.73
2018-07-19T20:07:38.521Z,101158.39
2018-07-19T20:10:07.374Z,101160.19
2018-07-19T20:12:34.549Z,101161.91
2018-07-19T20:15:01.715Z,101162.69
2018-07-19T20:17:28.914Z,101159.01
2018-07-19T20:19:56.040Z,101161.52
2018-07-19T20:22:23.216Z,101165.89
2018-07-19T20:24:50.375Z,101165.87
2018-07-19T20:27:17.521Z,101162.94
2018-07-19T20:29:44.692Z,101166.08
2018-07-19T20:32:11.961Z,101167.71
2018-07-19T20:34:39.066Z,101161.48
2018-07-19T20:37:06.208Z,101166.15
2018-07-19T20:39:33.439Z,101161.66
2018-07-19T20:42:00.810Z,101159.88
2018-07-19T20:44:27.943Z,101160.98
2018-07-19T20:46:55.097Z,101158.21
2018-07-19T20:49:22.263Z,101155.87
2018-07-19T20:51:49.381Z,101160.13
2018-07-19T20:54:16.523Z,101153.23
2018-07-19T20:56:43.650Z,101156.21
2018-07-19T20:59:10.810Z,101161.23
2018-07-19T21:01:37.988Z,101158.91
2018-07-19T21:04:05.158Z,101158.17
2018-07-19T21:06:32.288Z,101164.70
2018-07-19T21:08:59.472Z,101161.42
2018-07-19T21:11:26.610Z,101168.69
2018-07-19T21:13:53.756Z,101165.91
2018-07-19T21:16:20.892Z,101164.82
2018-07-19T21:18:47.999Z,101167.75
2018-07-19T21:21:15.172Z,101163.63
2018-07-19T21:23:42.414Z,101163.03
2018-07-19T21:26:09.573Z,101162.75
2018-07-19T21:28:36.704Z,101164.81
2018-07-19T21:31:03.901Z,101165.59
2018-07-19T21:33:31.033Z,101168.91
2018-07-19T21:35:58.144Z,101163.28
2018-07-19T21:38:25.356Z,101163.91
2018-07-19T21:40:52.475Z,101161.52
2018-07-19T21:43:19.727Z,101160.45
2018-07-19T21:45:46.887Z,101160.27
2018-07-19T21:48:14.013Z,101161.86
2018-07-19T21:50:41.153Z,101158.91
2018-07-19T21:53:08.333Z,101160.84
2018-07-19T21:55:35.500Z,101161.92
2018-07-19T21:58:02.628Z,101164.83
2018-07-19T22:00:30.284Z,101166.81
2018-07-19T22:02:58.711Z,101164.31
2018-07-19T22:05:25.850Z,101163.64
2018-07-19T22:07:53.101Z,101164.10
2018-07-19T22:10:20.225Z,101168.24
2018-07-19T22:12:47.368Z,101167.56
2018-07-19T22:15:14.541Z,101160.72
2018-07-19T22:17:41.676Z,101167.45
2018-07-19T22:20:08.792Z,101165.96
2018-07-19T22:22:35.979Z,101162.95
2018-07-19T22:25:03.343Z,101162.73
2018-07-19T22:27:30.528Z,101167.22
2018-07-19T22:29:57.700Z,101163.90
2018-07-19T22:32:24.804Z,101170.07
2018-07-19T22:34:51.936Z,101168.89
2018-07-19T22:37:19.171Z,101166.02
2018-07-19T22:39:46.304Z,101167.09
2018-07-19T22:42:13.437Z,101166.63
2018-07-19T22:44:40.646Z,101167.09
2018-07-19T22:47:07.759Z,101172.48
2018-07-19T22:49:34.895Z,101169.11
2018-07-19T22:52:02.043Z,101174.54
2018-07-19T22:54:29.156Z,101179.52
2018-07-19T22:56:56.251Z,101176.59
2018-07-19T22:59:23.419Z,101180.52
2018-07-19T23:01:50.540Z,101177.55
2018-07-19T23:04:17.637Z,101184.23
2018-07-19T23:06:44.846Z,101183.41
2018-07-19T23:09:11.984Z,101183.13
2018-07-19T23:11:39.135Z,101182.71
2018-07-19T23:14:06.303Z,101181.52
2018-07-19T23:16:33.457Z,101182.11
2018-07-19T23:19:00.596Z,101185.76
2018-07-19T23:21:27.789Z,101185.47
2018-07-19T23:23:54.899Z,101184.33
2018-07-19T23:26:22.128Z,101177.51
2018-07-19T23:28:49.348Z,101180.00
2018-07-19T23:31:16.584Z,101177.52
2018-07-19T23:33:43.760Z,101178.06
2018-07-19T23:36:17.404Z,101182.48
2018-07-19T23:38:48.405Z,101178.47
2018-07-19T23:41:24.616Z,101179.34
2018-07-19T23:43:55.840Z,101178.15
2018-07-19T23:46:28.767Z,101176.82
2018-07-19T23:48:57.325Z,101176.05
2018-07-19T23:51:24.443Z,101178.89
2018-07-19T23:53:51.611Z,101172.86
2018-07-19T23:56:18.748Z,101178.61
2018-07-19T23:58:45.875Z,101174.19
